createdAt,value
2023-04-12T00:02:28.303Z,7.64
2023-04-12T00:04:58.130Z,7.63
2023-04-12T00:07:26.255Z,7.62
2023-04-12T00:09:54.053Z,7.63
2023-04-12T00:12:22.134Z,7.61
2023-04-12T00:14:50.114Z,7.57
2023-04-12T00:17:19.443Z,7.56
2023-04-12T00:19:48.679Z,7.57
2023-04-12T00:22:16.986Z,7.63
2023-04-12T00:24:45.025Z,7.69
2023-04-12T00:27:12.868Z,7.75
2023-04-12T00:29:41.453Z,7.80
2023-04-12T00:32:10.755Z,7.82
2023-04-12T00:34:38.737Z,7.81
2023-04-12T00:37:06.563Z,7.81
2023-04-12T00:39:34.410Z,7.83
2023-04-12T00:42:05.814Z,7.84
2023-04-12T00:44:35.515Z,7.86
2023-04-12T00:47:05.564Z,7.88
2023-04-12T00:49:34.654Z,7.93
2023-04-12T00:52:08.731Z,7.95
2023-04-12T00:54:37.950Z,7.98
2023-04-12T00:57:06.455Z,7.99
2023-04-12T00:59:34.386Z,7.98
2023-04-12T01:02:03.383Z,7.97
2023-04-12T01:04:32.197Z,8.00
2023-04-12T01:07:15.873Z,7.98
2023-04-12T01:09:52.170Z,7.96
2023-04-12T01:12:38.684Z,7.97
2023-04-12T01:15:14.213Z,8.00
2023-04-12T01:18:22.317Z,8.03
2023-04-12T01:21:19.981Z,8.05
2023-04-12T01:23:59.732Z,8.05
2023-04-12T01:26:49.153Z,8.06
2023-04-12T01:29:20.799Z,8.05
2023-04-12T01:32:01.296Z,8.04
2023-04-12T01:34:31.704Z,8.05
2023-04-12T01:37:02.602Z,8.04
2023-04-12T01:39:33.310Z,8.02
2023-04-12T01:42:01.197Z,8.01
2023-04-12T01:44:29.865Z,8.02
2023-04-12T01:46:57.976Z,8.01
2023-04-12T01:49:36.663Z,7.95
2023-04-12T01:52:12.893Z,7.91
2023-04-12T01:54:44.687Z,7.86
2023-04-12T01:57:14.919Z,7.85
2023-04-12T01:59:44.641Z,7.86
2023-04-12T02:02:13.723Z,7.86
2023-04-12T02:04:43.078Z,7.86
2023-04-12T02:07:12.583Z,7.87
2023-04-12T02:09:40.501Z,7.90
2023-04-12T02:12:09.375Z,7.88
2023-04-12T02:14:37.451Z,7.85
2023-04-12T02:17:05.836Z,7.84
2023-04-12T02:19:34.152Z,7.83
2023-04-12T02:22:02.453Z,7.81
2023-04-12T02:24:30.440Z,7.81
2023-04-12T02:26:59.404Z,7.84
2023-04-12T02:29:27.937Z,7.85
2023-04-12T02:31:56.104Z,7.86
2023-04-12T02:34:25.599Z,7.87
2023-04-12T02:37:00.345Z,7.85
2023-04-12T02:39:29.340Z,7.84
2023-04-12T02:41:58.572Z,7.83
2023-04-12T02:44:29.709Z,7.83
2023-04-12T02:47:10.076Z,7.86
2023-04-12T02:49:38.514Z,7.88
2023-04-12T02:52:07.791Z,7.91
2023-04-12T02:54:41.806Z,7.93
2023-04-12T02:57:16.355Z,7.92
2023-04-12T02:59:46.688Z,7.90
2023-04-12T03:02:26.792Z,7.89
2023-04-12T03:04:59.264Z,7.89
2023-04-12T03:07:38.838Z,7.88
2023-04-12T03:10:07.893Z,7.90
2023-04-12T03:12:38.712Z,7.94
2023-04-12T03:15:14.880Z,7.99
2023-04-12T03:17:46.111Z,8.01
2023-04-12T03:20:14.613Z,8.03
2023-04-12T03:22:47.893Z,8.03
2023-04-12T03:25:18.098Z,8.00
2023-04-12T03:27:49.810Z,8.01
2023-04-12T03:30:18.665Z,8.02
2023-04-12T03:32:47.049Z,7.98
2023-04-12T03:35:15.351Z,7.97
2023-04-12T03:37:44.167Z,7.96
2023-04-12T03:40:13.635Z,7.96
2023-04-12T03:42:45.470Z,7.98
2023-04-12T03:45:15.004Z,8.00
2023-04-12T03:47:46.702Z,8.02
2023-04-12T03:50:15.241Z,8.04
2023-04-12T03:52:49.450Z,8.05
2023-04-12T03:55:18.535Z,8.05
2023-04-12T03:57:47.215Z,8.06
2023-04-12T04:00:16.045Z,8.05
2023-04-12T04:03:03.730Z,8.04
2023-04-12T04:05:35.556Z,8.07
2023-04-12T04:08:07.076Z,8.09
2023-04-12T04:10:43.023Z,8.12
2023-04-12T04:13:11.226Z,8.15
2023-04-12T04:15:39.756Z,8.18
2023-04-12T04:18:07.866Z,8.21
2023-04-12T04:20:36.123Z,8.23
2023-04-12T04:23:03.929Z,8.20
2023-04-12T04:25:32.026Z,8.20
2023-04-12T04:28:02.924Z,8.24
2023-04-12T04:30:34.450Z,8.26
2023-04-12T04:33:03.085Z,8.30
2023-04-12T04:35:31.712Z,8.32
2023-04-12T04:38:26.317Z,8.37
2023-04-12T04:41:02.482Z,8.39
2023-04-12T04:43:41.057Z,8.39
2023-04-12T04:46:08.967Z,8.38
2023-04-12T04:48:37.244Z,8.38
2023-04-12T04:51:05.491Z,8.39
2023-04-12T04:53:33.348Z,8.41
2023-04-12T04:56:01.565Z,8.41
2023-04-12T04:58:33.048Z,8.44
2023-04-12T05:01:00.961Z,8.48
2023-04-12T05:03:31.030Z,8.52
2023-04-12T05:06:01.548Z,8.56
2023-04-12T05:08:29.936Z,8.60
2023-04-12T05:10:58.406Z,8.60
2023-04-12T05:13:29.516Z,8.58
2023-04-12T05:15:57.773Z,8.59
2023-04-12T05:18:25.717Z,8.60
2023-04-12T05:20:53.936Z,8.64
2023-04-12T05:23:22.104Z,8.70
2023-04-12T05:25:52.089Z,8.78
2023-04-12T05:28:20.590Z,8.84
2023-04-12T05:30:48.669Z,8.89
2023-04-12T05:33:19.881Z,8.95
2023-04-12T05:35:48.136Z,8.99
2023-04-12T05:38:16.169Z,9.01
2023-04-12T05:40:44.452Z,9.07
2023-04-12T05:43:13.258Z,9.09
2023-04-12T05:45:42.098Z,9.09
2023-04-12T05:48:10.351Z,9.11
2023-04-12T05:50:38.783Z,9.18
2023-04-12T05:53:06.733Z,9.26
2023-04-12T05:55:37.789Z,9.33
2023-04-12T05:58:06.807Z,9.42
2023-04-12T06:00:36.413Z,9.51
2023-04-12T06:03:05.302Z,9.53
2023-04-12T06:05:34.323Z,9.51
2023-04-12T06:08:03.066Z,9.49
2023-04-12T06:10:31.746Z,9.54
2023-04-12T06:12:59.646Z,9.62
2023-04-12T06:15:28.308Z,9.63
2023-04-12T06:17:56.526Z,9.70
2023-04-12T06:20:24.692Z,9.78
2023-04-12T06:22:53.021Z,9.84
2023-04-12T06:25:23.129Z,9.84
2023-04-12T06:27:51.598Z,9.83
2023-04-12T06:30:21.144Z,9.81
2023-04-12T06:32:52.479Z,9.74
2023-04-12T06:35:21.683Z,9.77
2023-04-12T06:37:50.190Z,9.84
2023-04-12T06:40:18.049Z,9.88
2023-04-12T06:42:45.913Z,9.91
2023-04-12T06:45:14.459Z,9.91
2023-04-12T06:47:42.473Z,9.89
2023-04-12T06:50:11.221Z,9.88
2023-04-12T06:52:39.413Z,9.89
2023-04-12T06:55:07.981Z,9.95
2023-04-12T06:57:36.042Z,10.01
2023-04-12T07:00:04.627Z,10.12
2023-04-12T07:02:32.901Z,10.12
2023-04-12T07:05:01.281Z,10.08
2023-04-12T07:07:29.260Z,10.08
2023-04-12T07:09:57.095Z,10.16
2023-04-12T07:12:25.019Z,10.23
2023-04-12T07:14:52.848Z,10.34
2023-04-12T07:17:21.649Z,10.36
2023-04-12T07:19:50.450Z,10.38
2023-04-12T07:22:18.209Z,10.34
2023-04-12T07:24:46.111Z,10.35
2023-04-12T07:27:14.125Z,10.30
2023-04-12T07:29:42.077Z,10.25
2023-04-12T07:32:11.044Z,10.20
2023-04-12T07:34:39.651Z,10.12
2023-04-12T07:37:07.540Z,10.05
2023-04-12T07:39:36.366Z,10.01
2023-04-12T07:42:04.550Z,10.01
2023-04-12T07:44:35.595Z,10.04
2023-04-12T07:47:05.136Z,10.13
2023-04-12T07:49:32.973Z,10.19
2023-04-12T07:52:00.884Z,10.30
2023-04-12T07:54:29.266Z,10.36
2023-04-12T07:57:02.696Z,10.38
2023-04-12T07:59:31.765Z,10.39
2023-04-12T08:02:00.820Z,10.40
2023-04-12T08:04:29.181Z,10.36
2023-04-12T08:06:57.098Z,10.27
2023-04-12T08:09:25.893Z,10.22
2023-04-12T08:11:54.162Z,10.18
2023-04-12T08:14:22.246Z,10.18
2023-04-12T08:16:50.193Z,10.20
2023-04-12T08:19:20.433Z,10.22
2023-04-12T08:21:48.238Z,10.31
2023-04-12T08:24:16.577Z,10.48
2023-04-12T08:26:44.524Z,10.66
2023-04-12T08:29:12.933Z,10.85
2023-04-12T08:31:41.113Z,10.97
2023-04-12T08:34:09.028Z,10.99
2023-04-12T08:36:36.849Z,11.00
2023-04-12T08:39:04.679Z,11.00
2023-04-12T08:41:36.039Z,11.02
2023-04-12T08:44:05.631Z,11.17
2023-04-12T08:46:37.300Z,11.44
2023-04-12T08:49:05.485Z,11.78
2023-04-12T08:51:34.971Z,11.91
2023-04-12T08:54:02.808Z,11.92
2023-04-12T08:56:32.133Z,11.94
2023-04-12T08:59:01.035Z,11.98
2023-04-12T09:01:29.537Z,12.06
2023-04-12T09:03:57.931Z,12.26
2023-04-12T09:06:26.364Z,12.48
2023-04-12T09:08:55.927Z,12.63
2023-04-12T09:11:28.746Z,12.65
2023-04-12T09:14:58.562Z,12.66
2023-04-12T09:17:32.487Z,12.54
2023-04-12T09:20:17.737Z,12.48
2023-04-12T09:22:49.839Z,12.49
2023-04-12T09:25:18.823Z,12.78
2023-04-12T09:28:30.540Z,13.02
2023-04-12T09:31:07.084Z,13.20
2023-04-12T09:33:37.933Z,13.32
2023-04-12T09:36:15.961Z,13.56
2023-04-12T09:39:02.309Z,13.86
2023-04-12T09:41:32.342Z,14.18
2023-04-12T09:44:08.502Z,14.38
2023-04-12T09:46:56.730Z,14.44
2023-04-12T09:49:42.427Z,14.40
2023-04-12T09:52:13.010Z,14.23
2023-04-12T09:54:46.273Z,14.02
2023-04-12T09:57:18.097Z,13.77
2023-04-12T09:59:53.567Z,13.51
2023-04-12T10:02:32.349Z,13.36
2023-04-12T10:05:15.522Z,13.47
2023-04-12T10:07:47.878Z,13.92
2023-04-12T10:10:18.555Z,14.27
2023-04-12T10:12:53.232Z,14.50
2023-04-12T10:15:30.793Z,14.69
2023-04-12T10:19:01.070Z,15.07
2023-04-12T10:21:31.492Z,15.25
2023-04-12T10:24:01.276Z,15.29
2023-04-12T10:26:31.296Z,15.32
2023-04-12T10:29:26.668Z,15.41
2023-04-12T10:31:58.006Z,15.57
2023-04-12T10:34:32.140Z,15.61
2023-04-12T10:37:02.322Z,15.61
2023-04-12T10:39:42.820Z,15.66
2023-04-12T10:42:27.467Z,15.49
2023-04-12T10:45:17.002Z,15.12
2023-04-12T10:47:54.725Z,14.80
2023-04-12T10:50:25.349Z,14.80
2023-04-12T10:53:13.581Z,14.80
2023-04-12T10:55:42.976Z,14.80
2023-04-12T10:58:31.652Z,15.05
2023-04-12T11:00:59.568Z,15.34
2023-04-12T11:03:28.522Z,15.32
2023-04-12T11:06:20.136Z,15.19
2023-04-12T11:09:42.754Z,15.08
2023-04-12T11:12:15.430Z,15.17
2023-04-12T11:14:44.826Z,15.24
2023-04-12T11:17:12.852Z,15.28
2023-04-12T11:19:46.224Z,15.44
2023-04-12T11:22:16.160Z,15.58
2023-04-12T11:24:55.601Z,15.65
2023-04-12T11:27:25.715Z,15.67
2023-04-12T11:29:56.292Z,15.70
2023-04-12T11:32:27.650Z,15.67
2023-04-12T11:34:57.005Z,15.72
2023-04-12T11:37:27.319Z,15.83
2023-04-12T11:39:58.338Z,15.91
2023-04-12T11:42:29.339Z,15.98
2023-04-12T11:45:01.929Z,15.91
2023-04-12T11:47:31.977Z,15.80
2023-04-12T11:50:00.252Z,15.64
2023-04-12T11:52:30.754Z,15.48
2023-04-12T11:55:06.406Z,15.42
2023-04-12T11:57:35.014Z,15.73
2023-04-12T12:00:06.909Z,16.26
2023-04-12T12:02:52.341Z,16.73
2023-04-12T12:05:30.224Z,16.85
2023-04-12T12:08:00.074Z,16.81
2023-04-12T12:10:43.769Z,16.76
2023-04-12T12:13:15.548Z,16.75
2023-04-12T12:15:46.815Z,16.71
2023-04-12T12:18:14.723Z,16.60
2023-04-12T12:20:48.074Z,16.48
2023-04-12T12:23:32.800Z,16.48
2023-04-12T12:27:07.604Z,16.48
2023-04-12T12:28:53.763Z,16.58
2023-04-12T12:31:24.110Z,16.66
2023-04-12T12:33:59.843Z,16.59
2023-04-12T12:36:36.402Z,16.60
2023-04-12T12:39:10.654Z,16.66
2023-04-12T12:41:40.437Z,16.81
2023-04-12T12:44:09.028Z,16.91
2023-04-12T12:49:08.455Z,16.89
2023-04-12T12:51:36.633Z,16.98
2023-04-12T12:54:04.576Z,17.05
2023-04-12T12:56:32.529Z,17.10
2023-04-12T12:59:00.787Z,17.14
2023-04-12T13:01:28.697Z,17.16
2023-04-12T13:03:57.314Z,17.18
2023-04-12T13:06:28.499Z,17.16
2023-04-12T13:08:56.780Z,17.10
2023-04-12T13:11:25.069Z,16.93
2023-04-12T13:13:53.011Z,16.82
2023-04-12T13:16:21.058Z,16.67
2023-04-12T13:18:49.258Z,16.46
2023-04-12T13:21:17.124Z,16.21
2023-04-12T13:23:45.237Z,16.01
2023-04-12T13:26:13.074Z,15.72
2023-04-12T13:28:41.028Z,15.51
2023-04-12T13:31:08.895Z,15.40
2023-04-12T13:33:36.951Z,15.40
2023-04-12T13:36:05.216Z,15.50
2023-04-12T13:38:33.306Z,15.59
2023-04-12T13:41:01.268Z,15.65
2023-04-12T13:43:29.181Z,15.71
2023-04-12T13:45:57.183Z,15.80
2023-04-12T13:48:25.188Z,15.77
2023-04-12T13:50:54.320Z,15.80
2023-04-12T13:53:23.548Z,15.87
2023-04-12T13:55:51.586Z,15.86
2023-04-12T13:58:19.359Z,15.86
2023-04-12T14:00:47.526Z,15.83
2023-04-12T14:03:16.439Z,15.83
2023-04-12T14:05:44.862Z,15.68
2023-04-12T14:08:12.708Z,15.55
2023-04-12T14:10:40.988Z,15.41
2023-04-12T14:13:08.912Z,15.30
2023-04-12T14:15:36.880Z,15.08
2023-04-12T14:18:04.922Z,14.92
2023-04-12T14:20:32.966Z,14.83
2023-04-12T14:23:01.342Z,14.74
2023-04-12T14:25:29.317Z,14.65
2023-04-12T14:27:58.012Z,14.53
2023-04-12T14:30:26.394Z,14.44
2023-04-12T14:32:54.402Z,14.40
2023-04-12T14:35:22.484Z,14.32
2023-04-12T14:37:50.606Z,14.23
2023-04-12T14:40:19.286Z,14.11
2023-04-12T14:42:47.121Z,14.01
2023-04-12T14:45:15.759Z,13.91
2023-04-12T14:47:43.665Z,13.84
2023-04-12T14:50:11.637Z,13.80
2023-04-12T14:52:40.306Z,13.78
2023-04-12T14:55:10.566Z,13.76
2023-04-12T14:57:39.353Z,13.75
2023-04-12T15:00:13.893Z,13.74
2023-04-12T15:02:44.452Z,13.75
2023-04-12T15:05:12.600Z,13.73
2023-04-12T15:07:41.548Z,13.67
2023-04-12T15:10:11.070Z,13.60
2023-04-12T15:12:38.904Z,13.54
2023-04-12T15:15:07.933Z,13.49
2023-04-12T15:17:36.026Z,13.48
2023-04-12T15:20:15.894Z,13.46
2023-04-12T15:22:44.052Z,13.42
2023-04-12T15:25:12.081Z,13.42
2023-04-12T15:27:40.081Z,13.47
2023-04-12T15:30:14.550Z,13.49
2023-04-12T15:32:42.820Z,13.47
2023-04-12T15:35:25.358Z,13.45
2023-04-12T15:37:55.518Z,13.49
2023-04-12T15:40:24.388Z,13.56
2023-04-12T15:42:52.493Z,13.65
2023-04-12T15:45:20.421Z,13.78
2023-04-12T15:47:48.653Z,13.99
2023-04-12T15:50:16.716Z,14.22
2023-04-12T15:52:44.645Z,14.43
2023-04-12T15:55:13.002Z,14.59
2023-04-12T15:57:41.021Z,14.64
2023-04-12T16:00:21.082Z,14.64
2023-04-12T16:02:56.256Z,14.58
2023-04-12T16:05:25.084Z,14.49
2023-04-12T16:07:54.305Z,14.34
2023-04-12T16:10:25.546Z,14.18
2023-04-12T16:12:54.710Z,14.01
2023-04-12T16:15:22.925Z,13.85
2023-04-12T16:17:54.576Z,13.70
2023-04-12T16:20:24.475Z,13.57
2023-04-12T16:22:54.618Z,13.45
2023-04-12T16:25:24.454Z,13.32
2023-04-12T16:27:52.766Z,13.23
2023-04-12T16:30:22.630Z,13.12
2023-04-12T16:32:53.941Z,13.00
2023-04-12T16:35:21.968Z,12.89
2023-04-12T16:37:50.189Z,12.78
2023-04-12T16:40:18.347Z,12.67
2023-04-12T16:42:46.721Z,12.55
2023-04-12T16:45:15.394Z,12.42
2023-04-12T16:47:46.116Z,12.29
2023-04-12T16:50:15.606Z,12.21
2023-04-12T16:52:43.465Z,12.11
2023-04-12T16:55:12.393Z,12.02
2023-04-12T16:57:41.819Z,11.93
2023-04-12T17:00:22.291Z,11.86
2023-04-12T17:02:52.031Z,11.81
2023-04-12T17:05:21.678Z,11.70
2023-04-12T17:07:51.819Z,11.58
2023-04-12T17:10:24.827Z,11.47
2023-04-12T17:12:55.572Z,11.36
2023-04-12T17:15:25.440Z,11.28
2023-04-12T17:18:00.355Z,11.19
2023-04-12T17:20:29.356Z,11.12
2023-04-12T17:22:59.051Z,11.05
2023-04-12T17:25:31.334Z,10.98
2023-04-12T17:28:00.981Z,10.92
2023-04-12T17:30:29.209Z,10.89
2023-04-12T17:32:59.518Z,10.85
2023-04-12T17:35:27.926Z,10.79
2023-04-12T17:37:56.533Z,10.71
2023-04-12T17:40:24.470Z,10.64
2023-04-12T17:42:52.537Z,10.58
2023-04-12T17:45:21.930Z,10.52
2023-04-12T17:47:50.087Z,10.48
2023-04-12T17:50:18.000Z,10.43
2023-04-12T17:52:46.202Z,10.40
2023-04-12T17:55:14.038Z,10.37
2023-04-12T17:57:42.198Z,10.34
2023-04-12T18:00:13.619Z,10.30
2023-04-12T18:02:44.023Z,10.28
2023-04-12T18:05:13.579Z,10.23
2023-04-12T18:07:42.626Z,10.17
2023-04-12T18:10:15.444Z,10.10
2023-04-12T18:12:45.370Z,10.03
2023-04-12T18:15:13.350Z,10.00
2023-04-12T18:17:41.541Z,9.98
2023-04-12T18:20:11.005Z,10.01
2023-04-12T18:22:39.021Z,10.04
2023-04-12T18:25:08.315Z,10.04
2023-04-12T18:27:36.562Z,10.01
2023-04-12T18:30:05.404Z,10.00
2023-04-12T18:32:33.328Z,9.98
2023-04-12T18:35:02.199Z,9.98
2023-04-12T18:37:30.182Z,9.97
2023-04-12T18:39:58.599Z,9.95
2023-04-12T18:42:26.431Z,9.92
2023-04-12T18:44:56.430Z,9.93
2023-04-12T18:47:26.570Z,9.93
2023-04-12T18:49:55.243Z,9.93
2023-04-12T18:52:23.229Z,9.91
2023-04-12T18:54:51.490Z,9.90
2023-04-12T18:57:19.431Z,9.87
2023-04-12T18:59:49.130Z,9.82
2023-04-12T19:02:18.390Z,9.79
2023-04-12T19:04:47.562Z,9.78
2023-04-12T19:07:15.378Z,9.82
2023-04-12T19:09:43.410Z,9.86
2023-04-12T19:12:11.477Z,9.84
2023-04-12T19:14:39.449Z,9.79
2023-04-12T19:17:08.161Z,9.71
2023-04-12T19:19:36.399Z,9.63
2023-04-12T19:22:06.620Z,9.53
2023-04-12T19:24:35.186Z,9.39
2023-04-12T19:27:03.785Z,9.26
2023-04-12T19:29:31.726Z,9.17
2023-04-12T19:32:01.476Z,9.07
2023-04-12T19:34:29.535Z,8.97
2023-04-12T19:36:57.407Z,8.87
2023-04-12T19:39:27.069Z,8.77
2023-04-12T19:41:54.899Z,8.67
2023-04-12T19:44:23.400Z,8.56
2023-04-12T19:46:52.271Z,8.48
2023-04-12T19:49:22.366Z,8.40
2023-04-12T19:51:54.537Z,8.32
2023-04-12T19:54:25.584Z,8.26
2023-04-12T19:56:53.694Z,8.21
2023-04-12T19:59:21.928Z,8.16
2023-04-12T20:01:50.558Z,8.09
2023-04-12T20:04:21.405Z,8.02
2023-04-12T20:06:52.264Z,7.95
2023-04-12T20:09:25.457Z,7.89
2023-04-12T20:11:53.381Z,7.80
2023-04-12T20:14:21.824Z,7.71
2023-04-12T20:16:50.057Z,7.63
2023-04-12T20:19:18.277Z,7.55
2023-04-12T20:21:47.564Z,7.47
2023-04-12T20:24:15.480Z,7.38
2023-04-12T20:26:46.636Z,7.32
2023-04-12T20:29:15.261Z,7.27
2023-04-12T20:31:43.542Z,7.22
2023-04-12T20:34:11.446Z,7.19
2023-04-12T20:36:39.375Z,7.16
2023-04-12T20:39:07.215Z,7.12
2023-04-12T20:41:38.530Z,7.08
2023-04-12T20:44:06.676Z,7.03
2023-04-12T20:46:36.911Z,6.97
2023-04-12T20:49:06.898Z,6.91
2023-04-12T20:51:34.718Z,6.85
2023-04-12T20:54:03.317Z,6.77
2023-04-12T20:56:31.321Z,6.69
2023-04-12T20:59:00.954Z,6.61
2023-04-12T21:01:28.792Z,6.53
2023-04-12T21:03:59.796Z,6.49
2023-04-12T21:06:28.428Z,6.47
2023-04-12T21:08:56.608Z,6.46
2023-04-12T21:11:27.323Z,6.42
2023-04-12T21:13:55.169Z,6.38
2023-04-12T21:16:25.183Z,6.34
2023-04-12T21:18:53.845Z,6.29
2023-04-12T21:21:22.600Z,6.23
2023-04-12T21:23:51.976Z,6.16
2023-04-12T21:26:20.805Z,6.08
2023-04-12T21:28:48.768Z,6.02
2023-04-12T21:31:17.658Z,5.95
2023-04-12T21:33:45.467Z,5.88
2023-04-12T21:36:13.334Z,5.81
2023-04-12T21:38:41.408Z,5.76
2023-04-12T21:41:12.004Z,5.72
2023-04-12T21:43:41.056Z,5.70
2023-04-12T21:46:09.193Z,5.69
2023-04-12T21:48:37.512Z,5.68
2023-04-12T21:51:06.298Z,5.67
2023-04-12T21:53:34.079Z,5.68
2023-04-12T21:56:02.110Z,5.67
2023-04-12T21:58:30.183Z,5.64
2023-04-12T22:00:58.515Z,5.60
2023-04-12T22:03:26.479Z,5.54
2023-04-12T22:06:04.357Z,5.48
2023-04-12T22:08:33.374Z,5.41
2023-04-12T22:11:01.644Z,5.35
2023-04-12T22:13:30.988Z,5.29
2023-04-12T22:16:00.917Z,5.24
2023-04-12T22:18:28.737Z,5.20
2023-04-12T22:20:57.901Z,5.17
2023-04-12T22:23:26.265Z,5.13
2023-04-12T22:25:58.574Z,5.11
2023-04-12T22:28:26.639Z,5.07
2023-04-12T22:30:57.235Z,5.03
2023-04-12T22:33:25.301Z,4.99
2023-04-12T22:35:53.402Z,4.95
2023-04-12T22:38:21.651Z,4.92
2023-04-12T22:40:49.819Z,4.87
2023-04-12T22:43:21.056Z,4.82
2023-04-12T22:45:48.947Z,4.78
2023-04-12T22:48:16.872Z,4.73
2023-04-12T22:50:47.783Z,4.70
2023-04-12T22:53:16.016Z,4.68
2023-04-12T22:55:45.049Z,4.66
2023-04-12T22:58:12.992Z,4.63
2023-04-12T23:00:41.152Z,4.60
2023-04-12T23:03:11.384Z,4.56
2023-04-12T23:05:44.842Z,4.52
2023-04-12T23:08:18.059Z,4.47
2023-04-12T23:10:46.242Z,4.41
2023-04-12T23:13:14.150Z,4.37
2023-04-12T23:15:45.337Z,4.31
2023-04-12T23:18:13.483Z,4.26
2023-04-12T23:20:44.906Z,4.22
2023-04-12T23:23:12.755Z,4.19
2023-04-12T23:25:45.519Z,4.18
2023-04-12T23:28:15.630Z,4.17
2023-04-12T23:30:49.044Z,4.16
2023-04-12T23:33:20.327Z,4.15
2023-04-12T23:35:52.810Z,4.10
2023-04-12T23:38:32.406Z,4.06
2023-04-12T23:41:02.587Z,4.02
2023-04-12T23:43:34.992Z,3.97
2023-04-12T23:46:03.267Z,3.93
2023-04-12T23:48:32.883Z,3.87
2023-04-12T23:51:00.874Z,3.81
2023-04-12T23:53:28.734Z,3.76
2023-04-12T23:55:56.741Z,3.72
2023-04-12T23:58:26.201Z,3.69
